sensor_id;sensor_type;location;lat;lon;timestamp;P1;P2;P0
64138;PMS5003;50435;43.700;-79.318;2023-12-20T00:01:22;3;2;
64138;PMS5003;50435;43.700;-79.318;2023-12-20T00:03:50;4;4;
64138;PMS5003;50435;43.700;-79.318;2023-12-20T00:06:17;2;2;
64138;PMS5003;50435;43.700;-79.318;2023-12-20T00:08:45;3;3;
64138;PMS5003;50435;43.700;-79.318;2023-12-20T00:11:12;3;2;
64138;PMS5003;50435;43.700;-79.318;2023-12-20T00:13:40;2;2;
64138;PMS5003;50435;43.700;-79.318;2023-12-20T00:16:07;3;3;
64138;PMS5003;50435;43.700;-79.318;2023-12-20T00:18:36;1;1;
64138;PMS5003;50435;43.700;-79.318;2023-12-20T00:21:04;2;2;
64138;PMS5003;50435;43.700;-79.318;2023-12-20T00:23:31;2;2;
64138;PMS5003;50435;43.700;-79.318;2023-12-20T00:25:58;3;3;
64138;PMS5003;50435;43.700;-79.318;2023-12-20T00:28:26;2;2;
64138;PMS5003;50435;43.700;-79.318;2023-12-20T00:30:53;1;1;
64138;PMS5003;50435;43.700;-79.318;2023-12-20T00:33:21;2;2;
64138;PMS5003;50435;43.700;-79.318;2023-12-20T00:35:48;1;1;
64138;PMS5003;50435;43.700;-79.318;2023-12-20T00:38:16;1;1;
64138;PMS5003;50435;43.700;-79.318;2023-12-20T00:40:43;1;1;
64138;PMS5003;50435;43.700;-79.318;2023-12-20T00:43:10;3;3;
64138;PMS5003;50435;43.700;-79.318;2023-12-20T00:45:38;2;2;
64138;PMS5003;50435;43.700;-79.318;2023-12-20T00:48:06;2;2;
64138;PMS5003;50435;43.700;-79.318;2023-12-20T00:50:34;2;2;
64138;PMS5003;50435;43.700;-79.318;2023-12-20T00:53:01;4;3;
64138;PMS5003;50435;43.700;-79.318;2023-12-20T00:55:28;2;2;
64138;PMS5003;50435;43.700;-79.318;2023-12-20T00:57:56;2;2;
64138;PMS5003;50435;43.700;-79.318;2023-12-20T01:00:23;2;2;
64138;PMS5003;50435;43.700;-79.318;2023-12-20T01:02:51;6;3;
64138;PMS5003;50435;43.700;-79.318;2023-12-20T01:05:18;2;2;
64138;PMS5003;50435;43.700;-79.318;2023-12-20T01:07:45;1;1;
64138;PMS5003;50435;43.700;-79.318;2023-12-20T01:10:13;1;1;
64138;PMS5003;50435;43.700;-79.318;2023-12-20T01:12:40;2;2;
64138;PMS5003;50435;43.700;-79.318;2023-12-20T01:15:08;5;3;
64138;PMS5003;50435;43.700;-79.318;2023-12-20T01:17:36;2;2;
64138;PMS5003;50435;43.700;-79.318;2023-12-20T01:20:04;4;3;
64138;PMS5003;50435;43.700;-79.318;2023-12-20T01:22:32;2;2;
64138;PMS5003;50435;43.700;-79.318;2023-12-20T01:24:59;1;1;
64138;PMS5003;50435;43.700;-79.318;2023-12-20T01:27:27;1;1;
64138;PMS5003;50435;43.700;-79.318;2023-12-20T01:29:54;2;2;
64138;PMS5003;50435;43.700;-79.318;2023-12-20T01:32:21;2;2;
64138;PMS5003;50435;43.700;-79.318;2023-12-20T01:34:49;2;2;
64138;PMS5003;50435;43.700;-79.318;2023-12-20T01:37:16;3;3;
64138;PMS5003;50435;43.700;-79.318;2023-12-20T01:39:44;2;2;
64138;PMS5003;50435;43.700;-79.318;2023-12-20T01:42:11;1;1;
64138;PMS5003;50435;43.700;-79.318;2023-12-20T01:44:39;2;2;
64138;PMS5003;50435;43.700;-79.318;2023-12-20T01:47:06;1;1;
64138;PMS5003;50435;43.700;-79.318;2023-12-20T01:49:34;0;0;
64138;PMS5003;50435;43.700;-79.318;2023-12-20T01:52:03;2;2;
64138;PMS5003;50435;43.700;-79.318;2023-12-20T01:54:31;2;2;
64138;PMS5003;50435;43.700;-79.318;2023-12-20T01:56:58;1;1;
64138;PMS5003;50435;43.700;-79.318;2023-12-20T01:59:25;1;1;
64138;PMS5003;50435;43.700;-79.318;2023-12-20T02:01:55;2;2;
64138;PMS5003;50435;43.700;-79.318;2023-12-20T02:04:22;1;1;
64138;PMS5003;50435;43.700;-79.318;2023-12-20T02:06:52;2;2;
64138;PMS5003;50435;43.700;-79.318;2023-12-20T02:09:19;3;3;
64138;PMS5003;50435;43.700;-79.318;2023-12-20T02:11:47;2;2;
64138;PMS5003;50435;43.700;-79.318;2023-12-20T02:14:16;3;3;
64138;PMS5003;50435;43.700;-79.318;2023-12-20T02:16:44;6;2;
64138;PMS5003;50435;43.700;-79.318;2023-12-20T02:19:13;5;5;
64138;PMS5003;50435;43.700;-79.318;2023-12-20T02:21:40;2;2;
64138;PMS5003;50435;43.700;-79.318;2023-12-20T02:24:08;2;2;
64138;PMS5003;50435;43.700;-79.318;2023-12-20T02:26:35;6;6;
64138;PMS5003;50435;43.700;-79.318;2023-12-20T02:29:03;3;3;
64138;PMS5003;50435;43.700;-79.318;2023-12-20T02:31:31;6;6;
64138;PMS5003;50435;43.700;-79.318;2023-12-20T02:33:58;3;3;
64138;PMS5003;50435;43.700;-79.318;2023-12-20T02:36:25;5;3;
64138;PMS5003;50435;43.700;-79.318;2023-12-20T02:38:53;5;3;
64138;PMS5003;50435;43.700;-79.318;2023-12-20T02:41:20;6;6;
64138;PMS5003;50435;43.700;-79.318;2023-12-20T02:43:48;7;4;
64138;PMS5003;50435;43.700;-79.318;2023-12-20T02:46:15;5;5;
64138;PMS5003;50435;43.700;-79.318;2023-12-20T02:48:43;3;3;
64138;PMS5003;50435;43.700;-79.318;2023-12-20T02:51:11;10;8;
64138;PMS5003;50435;43.700;-79.318;2023-12-20T02:53:38;3;3;
64138;PMS5003;50435;43.700;-79.318;2023-12-20T02:56:06;5;5;
64138;PMS5003;50435;43.700;-79.318;2023-12-20T02:58:33;3;3;
64138;PMS5003;50435;43.700;-79.318;2023-12-20T03:01:00;6;6;
64138;PMS5003;50435;43.700;-79.318;2023-12-20T03:03:28;6;6;
64138;PMS5003;50435;43.700;-79.318;2023-12-20T03:05:55;6;6;
64138;PMS5003;50435;43.700;-79.318;2023-12-20T03:08:23;5;5;
64138;PMS5003;50435;43.700;-79.318;2023-12-20T03:10:50;3;3;
64138;PMS5003;50435;43.700;-79.318;2023-12-20T03:13:17;8;7;
64138;PMS5003;50435;43.700;-79.318;2023-12-20T03:15:45;5;5;
64138;PMS5003;50435;43.700;-79.318;2023-12-20T03:18:12;5;5;
64138;PMS5003;50435;43.700;-79.318;2023-12-20T03:20:40;7;7;
64138;PMS5003;50435;43.700;-79.318;2023-12-20T03:23:07;6;4;
64138;PMS5003;50435;43.700;-79.318;2023-12-20T03:25:34;8;8;
64138;PMS5003;50435;43.700;-79.318;2023-12-20T03:28:02;7;7;
64138;PMS5003;50435;43.700;-79.318;2023-12-20T03:30:30;7;7;
64138;PMS5003;50435;43.700;-79.318;2023-12-20T03:32:57;6;6;
64138;PMS5003;50435;43.700;-79.318;2023-12-20T03:35:25;7;7;
64138;PMS5003;50435;43.700;-79.318;2023-12-20T03:37:52;6;6;
64138;PMS5003;50435;43.700;-79.318;2023-12-20T03:40:19;9;7;
64138;PMS5003;50435;43.700;-79.318;2023-12-20T03:42:47;8;8;
64138;PMS5003;50435;43.700;-79.318;2023-12-20T03:45:14;7;7;
64138;PMS5003;50435;43.700;-79.318;2023-12-20T03:47:41;6;6;
64138;PMS5003;50435;43.700;-79.318;2023-12-20T03:50:09;11;6;
64138;PMS5003;50435;43.700;-79.318;2023-12-20T03:52:37;7;4;
64138;PMS5003;50435;43.700;-79.318;2023-12-20T03:55:04;7;6;
64138;PMS5003;50435;43.700;-79.318;2023-12-20T03:57:32;7;7;
64138;PMS5003;50435;43.700;-79.318;2023-12-20T04:00:00;8;8;
64138;PMS5003;50435;43.700;-79.318;2023-12-20T04:02:27;9;8;
64138;PMS5003;50435;43.700;-79.318;2023-12-20T04:04:54;7;7;
64138;PMS5003;50435;43.700;-79.318;2023-12-20T04:07:22;7;3;
64138;PMS5003;50435;43.700;-79.318;2023-12-20T04:09:49;7;7;
64138;PMS5003;50435;43.700;-79.318;2023-12-20T04:12:17;7;7;
64138;PMS5003;50435;43.700;-79.318;2023-12-20T04:14:44;7;7;
64138;PMS5003;50435;43.700;-79.318;2023-12-20T04:17:11;8;7;
64138;PMS5003;50435;43.700;-79.318;2023-12-20T04:19:39;12;9;
64138;PMS5003;50435;43.700;-79.318;2023-12-20T04:22:06;11;8;
64138;PMS5003;50435;43.700;-79.318;2023-12-20T04:24:34;4;4;
64138;PMS5003;50435;43.700;-79.318;2023-12-20T04:27:01;8;7;
64138;PMS5003;50435;43.700;-79.318;2023-12-20T04:29:28;7;7;
64138;PMS5003;50435;43.700;-79.318;2023-12-20T04:31:56;7;7;
64138;PMS5003;50435;43.700;-79.318;2023-12-20T04:34:23;9;6;
64138;PMS5003;50435;43.700;-79.318;2023-12-20T04:36:51;8;7;
64138;PMS5003;50435;43.700;-79.318;2023-12-20T04:39:18;7;7;
64138;PMS5003;50435;43.700;-79.318;2023-12-20T04:41:46;11;7;
64138;PMS5003;50435;43.700;-79.318;2023-12-20T04:44:13;6;6;
64138;PMS5003;50435;43.700;-79.318;2023-12-20T04:46:40;8;7;
64138;PMS5003;50435;43.700;-79.318;2023-12-20T04:49:08;8;8;
64138;PMS5003;50435;43.700;-79.318;2023-12-20T04:51:35;6;6;
64138;PMS5003;50435;43.700;-79.318;2023-12-20T04:54:03;4;4;
64138;PMS5003;50435;43.700;-79.318;2023-12-20T04:56:30;7;6;
64138;PMS5003;50435;43.700;-79.318;2023-12-20T04:58:58;6;6;
64138;PMS5003;50435;43.700;-79.318;2023-12-20T05:01:25;7;7;
64138;PMS5003;50435;43.700;-79.318;2023-12-20T05:03:53;11;7;
64138;PMS5003;50435;43.700;-79.318;2023-12-20T05:06:20;6;3;
64138;PMS5003;50435;43.700;-79.318;2023-12-20T05:08:47;9;9;
64138;PMS5003;50435;43.700;-79.318;2023-12-20T05:11:15;13;9;
64138;PMS5003;50435;43.700;-79.318;2023-12-20T05:13:42;9;9;
64138;PMS5003;50435;43.700;-79.318;2023-12-20T05:16:09;6;6;
64138;PMS5003;50435;43.700;-79.318;2023-12-20T05:18:37;7;6;
64138;PMS5003;50435;43.700;-79.318;2023-12-20T05:21:05;7;7;
64138;PMS5003;50435;43.700;-79.318;2023-12-20T05:23:32;8;8;
64138;PMS5003;50435;43.700;-79.318;2023-12-20T05:25:59;7;6;
64138;PMS5003;50435;43.700;-79.318;2023-12-20T05:28:27;8;7;
64138;PMS5003;50435;43.700;-79.318;2023-12-20T05:30:54;11;11;
64138;PMS5003;50435;43.700;-79.318;2023-12-20T05:33:21;8;8;
64138;PMS5003;50435;43.700;-79.318;2023-12-20T05:35:49;9;6;
64138;PMS5003;50435;43.700;-79.318;2023-12-20T05:38:16;9;8;
64138;PMS5003;50435;43.700;-79.318;2023-12-20T05:40:44;9;9;
64138;PMS5003;50435;43.700;-79.318;2023-12-20T05:43:11;7;7;
64138;PMS5003;50435;43.700;-79.318;2023-12-20T05:45:39;11;11;
64138;PMS5003;50435;43.700;-79.318;2023-12-20T05:48:06;8;8;
64138;PMS5003;50435;43.700;-79.318;2023-12-20T05:50:33;9;9;
64138;PMS5003;50435;43.700;-79.318;2023-12-20T05:53:01;8;7;
64138;PMS5003;50435;43.700;-79.318;2023-12-20T05:55:28;7;7;
64138;PMS5003;50435;43.700;-79.318;2023-12-20T05:57:56;8;8;
64138;PMS5003;50435;43.700;-79.318;2023-12-20T06:00:23;9;9;
64138;PMS5003;50435;43.700;-79.318;2023-12-20T06:02:51;11;9;
64138;PMS5003;50435;43.700;-79.318;2023-12-20T06:05:18;14;13;
64138;PMS5003;50435;43.700;-79.318;2023-12-20T06:07:46;12;12;
64138;PMS5003;50435;43.700;-79.318;2023-12-20T06:10:14;13;12;
64138;PMS5003;50435;43.700;-79.318;2023-12-20T06:12:41;11;11;
64138;PMS5003;50435;43.700;-79.318;2023-12-20T06:15:08;8;8;
64138;PMS5003;50435;43.700;-79.318;2023-12-20T06:17:37;12;9;
64138;PMS5003;50435;43.700;-79.318;2023-12-20T06:20:04;12;12;
64138;PMS5003;50435;43.700;-79.318;2023-12-20T06:22:34;11;11;
64138;PMS5003;50435;43.700;-79.318;2023-12-20T06:25:01;14;13;
64138;PMS5003;50435;43.700;-79.318;2023-12-20T06:27:29;13;12;
64138;PMS5003;50435;43.700;-79.318;2023-12-20T06:29:57;16;14;
64138;PMS5003;50435;43.700;-79.318;2023-12-20T06:32:24;14;14;
64138;PMS5003;50435;43.700;-79.318;2023-12-20T06:34:51;16;14;
64138;PMS5003;50435;43.700;-79.318;2023-12-20T06:37:19;18;16;
64138;PMS5003;50435;43.700;-79.318;2023-12-20T06:39:46;18;16;
64138;PMS5003;50435;43.700;-79.318;2023-12-20T06:42:13;16;14;
64138;PMS5003;50435;43.700;-79.318;2023-12-20T06:44:41;14;12;
64138;PMS5003;50435;43.700;-79.318;2023-12-20T06:47:08;17;17;
64138;PMS5003;50435;43.700;-79.318;2023-12-20T06:49:35;16;16;
64138;PMS5003;50435;43.700;-79.318;2023-12-20T06:52:03;14;14;
64138;PMS5003;50435;43.700;-79.318;2023-12-20T06:54:30;17;17;
64138;PMS5003;50435;43.700;-79.318;2023-12-20T06:56:58;19;17;
64138;PMS5003;50435;43.700;-79.318;2023-12-20T06:59:26;18;18;
64138;PMS5003;50435;43.700;-79.318;2023-12-20T07:01:53;14;14;
64138;PMS5003;50435;43.700;-79.318;2023-12-20T07:04:21;18;17;
64138;PMS5003;50435;43.700;-79.318;2023-12-20T07:06:49;16;16;
64138;PMS5003;50435;43.700;-79.318;2023-12-20T07:09:17;14;14;
64138;PMS5003;50435;43.700;-79.318;2023-12-20T07:11:44;16;14;
64138;PMS5003;50435;43.700;-79.318;2023-12-20T07:14:11;13;11;
64138;PMS5003;50435;43.700;-79.318;2023-12-20T07:16:39;14;12;
64138;PMS5003;50435;43.700;-79.318;2023-12-20T07:19:06;14;14;
64138;PMS5003;50435;43.700;-79.318;2023-12-20T07:21:33;14;14;
64138;PMS5003;50435;43.700;-79.318;2023-12-20T07:24:00;13;13;
64138;PMS5003;50435;43.700;-79.318;2023-12-20T07:26:28;22;17;
64138;PMS5003;50435;43.700;-79.318;2023-12-20T07:28:55;12;11;
64138;PMS5003;50435;43.700;-79.318;2023-12-20T07:31:22;15;14;
64138;PMS5003;50435;43.700;-79.318;2023-12-20T07:33:50;13;12;
64138;PMS5003;50435;43.700;-79.318;2023-12-20T07:36:19;14;12;
64138;PMS5003;50435;43.700;-79.318;2023-12-20T07:38:46;16;14;
64138;PMS5003;50435;43.700;-79.318;2023-12-20T07:41:14;12;11;
64138;PMS5003;50435;43.700;-79.318;2023-12-20T07:43:41;11;11;
64138;PMS5003;50435;43.700;-79.318;2023-12-20T07:46:09;14;12;
64138;PMS5003;50435;43.700;-79.318;2023-12-20T07:48:37;13;13;
64138;PMS5003;50435;43.700;-79.318;2023-12-20T07:51:05;14;14;
64138;PMS5003;50435;43.700;-79.318;2023-12-20T07:53:32;14;14;
64138;PMS5003;50435;43.700;-79.318;2023-12-20T07:55:59;12;12;
64138;PMS5003;50435;43.700;-79.318;2023-12-20T07:58:27;12;12;
64138;PMS5003;50435;43.700;-79.318;2023-12-20T08:00:55;11;11;
64138;PMS5003;50435;43.700;-79.318;2023-12-20T08:03:23;14;14;
64138;PMS5003;50435;43.700;-79.318;2023-12-20T08:05:51;13;13;
64138;PMS5003;50435;43.700;-79.318;2023-12-20T08:08:18;17;13;
64138;PMS5003;50435;43.700;-79.318;2023-12-20T08:10:45;9;8;
64138;PMS5003;50435;43.700;-79.318;2023-12-20T08:13:13;13;9;
64138;PMS5003;50435;43.700;-79.318;2023-12-20T08:15:40;9;9;
64138;PMS5003;50435;43.700;-79.318;2023-12-20T08:18:07;13;13;
64138;PMS5003;50435;43.700;-79.318;2023-12-20T08:20:35;13;12;
64138;PMS5003;50435;43.700;-79.318;2023-12-20T08:23:02;9;9;
64138;PMS5003;50435;43.700;-79.318;2023-12-20T08:25:29;12;11;
64138;PMS5003;50435;43.700;-79.318;2023-12-20T08:27:57;11;11;
64138;PMS5003;50435;43.700;-79.318;2023-12-20T08:30:24;13;13;
64138;PMS5003;50435;43.700;-79.318;2023-12-20T08:32:52;9;9;
64138;PMS5003;50435;43.700;-79.318;2023-12-20T08:35:19;12;11;
64138;PMS5003;50435;43.700;-79.318;2023-12-20T08:37:46;11;11;
64138;PMS5003;50435;43.700;-79.318;2023-12-20T08:40:14;17;12;
64138;PMS5003;50435;43.700;-79.318;2023-12-20T08:42:41;13;13;
64138;PMS5003;50435;43.700;-79.318;2023-12-20T08:45:08;17;17;
64138;PMS5003;50435;43.700;-79.318;2023-12-20T08:47:36;13;13;
64138;PMS5003;50435;43.700;-79.318;2023-12-20T08:50:05;13;13;
64138;PMS5003;50435;43.700;-79.318;2023-12-20T08:52:33;11;8;
64138;PMS5003;50435;43.700;-79.318;2023-12-20T08:55:01;11;9;
64138;PMS5003;50435;43.700;-79.318;2023-12-20T08:57:28;12;9;
64138;PMS5003;50435;43.700;-79.318;2023-12-20T08:59:55;11;9;
64138;PMS5003;50435;43.700;-79.318;2023-12-20T09:02:22;12;12;
64138;PMS5003;50435;43.700;-79.318;2023-12-20T09:04:50;9;9;
64138;PMS5003;50435;43.700;-79.318;2023-12-20T09:07:24;12;11;
64138;PMS5003;50435;43.700;-79.318;2023-12-20T09:09:53;12;12;
64138;PMS5003;50435;43.700;-79.318;2023-12-20T09:12:20;14;12;
64138;PMS5003;50435;43.700;-79.318;2023-12-20T09:14:49;10;10;
64138;PMS5003;50435;43.700;-79.318;2023-12-20T09:17:18;13;12;
64138;PMS5003;50435;43.700;-79.318;2023-12-20T09:19:46;10;10;
64138;PMS5003;50435;43.700;-79.318;2023-12-20T09:22:13;13;9;
64138;PMS5003;50435;43.700;-79.318;2023-12-20T09:24:41;8;8;
64138;PMS5003;50435;43.700;-79.318;2023-12-20T09:27:08;8;8;
64138;PMS5003;50435;43.700;-79.318;2023-12-20T09:29:35;14;13;
64138;PMS5003;50435;43.700;-79.318;2023-12-20T09:32:02;12;9;
64138;PMS5003;50435;43.700;-79.318;2023-12-20T09:34:30;12;8;
64138;PMS5003;50435;43.700;-79.318;2023-12-20T09:36:58;10;9;
64138;PMS5003;50435;43.700;-79.318;2023-12-20T09:39:25;9;9;
64138;PMS5003;50435;43.700;-79.318;2023-12-20T09:41:56;10;9;
64138;PMS5003;50435;43.700;-79.318;2023-12-20T09:44:27;9;9;
64138;PMS5003;50435;43.700;-79.318;2023-12-20T09:46:55;15;13;
64138;PMS5003;50435;43.700;-79.318;2023-12-20T09:49:23;14;12;
64138;PMS5003;50435;43.700;-79.318;2023-12-20T09:51:53;9;9;
64138;PMS5003;50435;43.700;-79.318;2023-12-20T09:54:21;13;12;
64138;PMS5003;50435;43.700;-79.318;2023-12-20T09:56:49;9;9;
64138;PMS5003;50435;43.700;-79.318;2023-12-20T09:59:17;8;8;
64138;PMS5003;50435;43.700;-79.318;2023-12-20T10:01:45;9;9;
64138;PMS5003;50435;43.700;-79.318;2023-12-20T10:04:12;12;9;
64138;PMS5003;50435;43.700;-79.318;2023-12-20T10:06:43;9;6;
64138;PMS5003;50435;43.700;-79.318;2023-12-20T10:09:11;7;7;
64138;PMS5003;50435;43.700;-79.318;2023-12-20T10:11:39;8;7;
64138;PMS5003;50435;43.700;-79.318;2023-12-20T10:14:07;7;7;
64138;PMS5003;50435;43.700;-79.318;2023-12-20T10:16:34;9;9;
64138;PMS5003;50435;43.700;-79.318;2023-12-20T10:19:01;9;8;
64138;PMS5003;50435;43.700;-79.318;2023-12-20T10:21:28;10;10;
64138;PMS5003;50435;43.700;-79.318;2023-12-20T10:23:56;13;9;
64138;PMS5003;50435;43.700;-79.318;2023-12-20T10:26:25;13;7;
64138;PMS5003;50435;43.700;-79.318;2023-12-20T10:28:53;8;6;
64138;PMS5003;50435;43.700;-79.318;2023-12-20T10:31:26;9;9;
64138;PMS5003;50435;43.700;-79.318;2023-12-20T10:33:56;8;6;
64138;PMS5003;50435;43.700;-79.318;2023-12-20T10:36:25;8;8;
64138;PMS5003;50435;43.700;-79.318;2023-12-20T10:38:53;8;6;
64138;PMS5003;50435;43.700;-79.318;2023-12-20T10:41:24;10;9;
64138;PMS5003;50435;43.700;-79.318;2023-12-20T10:43:53;10;9;
64138;PMS5003;50435;43.700;-79.318;2023-12-20T10:46:25;10;7;
64138;PMS5003;50435;43.700;-79.318;2023-12-20T10:48:53;7;7;
64138;PMS5003;50435;43.700;-79.318;2023-12-20T10:51:22;6;6;
64138;PMS5003;50435;43.700;-79.318;2023-12-20T10:53:51;8;8;
64138;PMS5003;50435;43.700;-79.318;2023-12-20T10:56:20;7;7;
64138;PMS5003;50435;43.700;-79.318;2023-12-20T10:58:49;8;8;
64138;PMS5003;50435;43.700;-79.318;2023-12-20T11:01:17;10;10;
64138;PMS5003;50435;43.700;-79.318;2023-12-20T11:03:48;7;6;
64138;PMS5003;50435;43.700;-79.318;2023-12-20T11:06:21;9;9;
64138;PMS5003;50435;43.700;-79.318;2023-12-20T11:08:57;7;6;
64138;PMS5003;50435;43.700;-79.318;2023-12-20T11:11:34;8;8;
64138;PMS5003;50435;43.700;-79.318;2023-12-20T11:14:06;7;6;
64138;PMS5003;50435;43.700;-79.318;2023-12-20T11:16:38;10;8;
64138;PMS5003;50435;43.700;-79.318;2023-12-20T11:19:06;12;9;
64138;PMS5003;50435;43.700;-79.318;2023-12-20T11:21:33;10;7;
64138;PMS5003;50435;43.700;-79.318;2023-12-20T11:24:01;7;7;
64138;PMS5003;50435;43.700;-79.318;2023-12-20T11:26:29;6;6;
64138;PMS5003;50435;43.700;-79.318;2023-12-20T11:29:12;10;8;
64138;PMS5003;50435;43.700;-79.318;2023-12-20T11:31:57;9;8;
64138;PMS5003;50435;43.700;-79.318;2023-12-20T11:34:27;8;6;
64138;PMS5003;50435;43.700;-79.318;2023-12-20T11:36:58;9;8;
64138;PMS5003;50435;43.700;-79.318;2023-12-20T11:39:26;8;6;
64138;PMS5003;50435;43.700;-79.318;2023-12-20T11:41:54;6;6;
64138;PMS5003;50435;43.700;-79.318;2023-12-20T11:44:22;7;7;
64138;PMS5003;50435;43.700;-79.318;2023-12-20T11:46:51;9;9;
64138;PMS5003;50435;43.700;-79.318;2023-12-20T11:49:18;8;7;
64138;PMS5003;50435;43.700;-79.318;2023-12-20T11:51:48;9;9;
64138;PMS5003;50435;43.700;-79.318;2023-12-20T11:54:16;8;8;
64138;PMS5003;50435;43.700;-79.318;2023-12-20T11:56:43;7;7;
64138;PMS5003;50435;43.700;-79.318;2023-12-20T11:59:11;9;7;
64138;PMS5003;50435;43.700;-79.318;2023-12-20T12:01:38;7;6;
64138;PMS5003;50435;43.700;-79.318;2023-12-20T12:04:05;7;7;
64138;PMS5003;50435;43.700;-79.318;2023-12-20T12:06:33;6;4;
64138;PMS5003;50435;43.700;-79.318;2023-12-20T12:09:01;9;9;
64138;PMS5003;50435;43.700;-79.318;2023-12-20T12:11:28;7;7;
64138;PMS5003;50435;43.700;-79.318;2023-12-20T12:13:55;10;8;
64138;PMS5003;50435;43.700;-79.318;2023-12-20T12:16:22;7;6;
64138;PMS5003;50435;43.700;-79.318;2023-12-20T12:18:55;8;8;
64138;PMS5003;50435;43.700;-79.318;2023-12-20T12:21:23;14;10;
64138;PMS5003;50435;43.700;-79.318;2023-12-20T12:23:51;10;8;
64138;PMS5003;50435;43.700;-79.318;2023-12-20T12:26:18;8;6;
64138;PMS5003;50435;43.700;-79.318;2023-12-20T12:28:46;7;6;
64138;PMS5003;50435;43.700;-79.318;2023-12-20T12:31:13;9;9;
64138;PMS5003;50435;43.700;-79.318;2023-12-20T12:33:41;9;9;
64138;PMS5003;50435;43.700;-79.318;2023-12-20T12:36:09;6;6;
64138;PMS5003;50435;43.700;-79.318;2023-12-20T12:38:39;6;6;
64138;PMS5003;50435;43.700;-79.318;2023-12-20T12:41:08;7;7;
64138;PMS5003;50435;43.700;-79.318;2023-12-20T12:43:35;7;7;
64138;PMS5003;50435;43.700;-79.318;2023-12-20T12:46:03;9;8;
64138;PMS5003;50435;43.700;-79.318;2023-12-20T12:48:31;6;4;
64138;PMS5003;50435;43.700;-79.318;2023-12-20T12:50:58;9;9;
64138;PMS5003;50435;43.700;-79.318;2023-12-20T12:53:25;12;10;
64138;PMS5003;50435;43.700;-79.318;2023-12-20T12:55:52;10;10;
64138;PMS5003;50435;43.700;-79.318;2023-12-20T12:58:20;7;7;
64138;PMS5003;50435;43.700;-79.318;2023-12-20T13:00:48;13;10;
64138;PMS5003;50435;43.700;-79.318;2023-12-20T13:03:15;8;8;
64138;PMS5003;50435;43.700;-79.318;2023-12-20T13:05:43;10;7;
64138;PMS5003;50435;43.700;-79.318;2023-12-20T13:08:10;10;10;
64138;PMS5003;50435;43.700;-79.318;2023-12-20T13:10:37;12;10;
64138;PMS5003;50435;43.700;-79.318;2023-12-20T13:13:05;8;8;
64138;PMS5003;50435;43.700;-79.318;2023-12-20T13:15:32;8;7;
64138;PMS5003;50435;43.700;-79.318;2023-12-20T13:17:59;9;9;
64138;PMS5003;50435;43.700;-79.318;2023-12-20T13:20:26;13;12;
64138;PMS5003;50435;43.700;-79.318;2023-12-20T13:22:54;8;8;
64138;PMS5003;50435;43.700;-79.318;2023-12-20T13:25:21;7;7;
64138;PMS5003;50435;43.700;-79.318;2023-12-20T13:27:48;13;8;
64138;PMS5003;50435;43.700;-79.318;2023-12-20T13:30:16;9;9;
64138;PMS5003;50435;43.700;-79.318;2023-12-20T13:32:43;14;10;
64138;PMS5003;50435;43.700;-79.318;2023-12-20T13:35:11;12;8;
64138;PMS5003;50435;43.700;-79.318;2023-12-20T13:37:38;12;8;
64138;PMS5003;50435;43.700;-79.318;2023-12-20T13:40:07;12;9;
64138;PMS5003;50435;43.700;-79.318;2023-12-20T13:42:35;8;8;
64138;PMS5003;50435;43.700;-79.318;2023-12-20T13:45:02;14;10;
64138;PMS5003;50435;43.700;-79.318;2023-12-20T13:47:30;13;13;
64138;PMS5003;50435;43.700;-79.318;2023-12-20T13:49:57;10;10;
64138;PMS5003;50435;43.700;-79.318;2023-12-20T13:52:25;9;9;
64138;PMS5003;50435;43.700;-79.318;2023-12-20T13:54:52;13;9;
64138;PMS5003;50435;43.700;-79.318;2023-12-20T13:57:19;13;13;
64138;PMS5003;50435;43.700;-79.318;2023-12-20T13:59:46;9;9;
64138;PMS5003;50435;43.700;-79.318;2023-12-20T14:02:14;9;9;
64138;PMS5003;50435;43.700;-79.318;2023-12-20T14:04:41;12;10;
64138;PMS5003;50435;43.700;-79.318;2023-12-20T14:07:09;14;11;
64138;PMS5003;50435;43.700;-79.318;2023-12-20T14:09:37;12;12;
64138;PMS5003;50435;43.700;-79.318;2023-12-20T14:12:05;13;10;
64138;PMS5003;50435;43.700;-79.318;2023-12-20T14:14:33;14;14;
64138;PMS5003;50435;43.700;-79.318;2023-12-20T14:17:00;13;13;
64138;PMS5003;50435;43.700;-79.318;2023-12-20T14:19:28;13;11;
64138;PMS5003;50435;43.700;-79.318;2023-12-20T14:21:55;12;9;
64138;PMS5003;50435;43.700;-79.318;2023-12-20T14:24:22;11;11;
64138;PMS5003;50435;43.700;-79.318;2023-12-20T14:26:50;10;10;
64138;PMS5003;50435;43.700;-79.318;2023-12-20T14:29:17;16;13;
64138;PMS5003;50435;43.700;-79.318;2023-12-20T14:31:44;11;11;
64138;PMS5003;50435;43.700;-79.318;2023-12-20T14:34:12;15;14;
64138;PMS5003;50435;43.700;-79.318;2023-12-20T14:36:39;11;11;
64138;PMS5003;50435;43.700;-79.318;2023-12-20T14:39:06;10;10;
64138;PMS5003;50435;43.700;-79.318;2023-12-20T14:41:33;9;9;
64138;PMS5003;50435;43.700;-79.318;2023-12-20T14:44:01;17;15;
64138;PMS5003;50435;43.700;-79.318;2023-12-20T14:46:29;8;8;
64138;PMS5003;50435;43.700;-79.318;2023-12-20T14:48:56;13;11;
64138;PMS5003;50435;43.700;-79.318;2023-12-20T14:51:23;14;13;
64138;PMS5003;50435;43.700;-79.318;2023-12-20T14:53:50;11;10;
64138;PMS5003;50435;43.700;-79.318;2023-12-20T14:56:18;11;11;
64138;PMS5003;50435;43.700;-79.318;2023-12-20T14:58:46;15;15;
64138;PMS5003;50435;43.700;-79.318;2023-12-20T15:01:13;10;9;
64138;PMS5003;50435;43.700;-79.318;2023-12-20T15:03:40;11;11;
64138;PMS5003;50435;43.700;-79.318;2023-12-20T15:06:08;10;10;
64138;PMS5003;50435;43.700;-79.318;2023-12-20T15:08:35;14;11;
64138;PMS5003;50435;43.700;-79.318;2023-12-20T15:11:02;11;9;
64138;PMS5003;50435;43.700;-79.318;2023-12-20T15:13:30;13;13;
64138;PMS5003;50435;43.700;-79.318;2023-12-20T15:15:58;11;10;
64138;PMS5003;50435;43.700;-79.318;2023-12-20T15:18:25;13;13;
64138;PMS5003;50435;43.700;-79.318;2023-12-20T15:20:52;10;10;
64138;PMS5003;50435;43.700;-79.318;2023-12-20T15:23:20;14;14;
64138;PMS5003;50435;43.700;-79.318;2023-12-20T15:25:47;13;12;
64138;PMS5003;50435;43.700;-79.318;2023-12-20T15:28:15;11;11;
64138;PMS5003;50435;43.700;-79.318;2023-12-20T15:30:42;15;13;
64138;PMS5003;50435;43.700;-79.318;2023-12-20T15:33:09;15;14;
64138;PMS5003;50435;43.700;-79.318;2023-12-20T15:35:36;13;13;
64138;PMS5003;50435;43.700;-79.318;2023-12-20T15:38:03;16;15;
64138;PMS5003;50435;43.700;-79.318;2023-12-20T15:40:31;14;14;
64138;PMS5003;50435;43.700;-79.318;2023-12-20T15:42:58;11;11;
64138;PMS5003;50435;43.700;-79.318;2023-12-20T15:45:25;15;15;
64138;PMS5003;50435;43.700;-79.318;2023-12-20T15:47:53;13;13;
64138;PMS5003;50435;43.700;-79.318;2023-12-20T15:50:20;14;11;
64138;PMS5003;50435;43.700;-79.318;2023-12-20T15:52:48;13;13;
64138;PMS5003;50435;43.700;-79.318;2023-12-20T15:55:15;14;14;
64138;PMS5003;50435;43.700;-79.318;2023-12-20T15:57:43;13;13;
64138;PMS5003;50435;43.700;-79.318;2023-12-20T16:00:11;13;13;
64138;PMS5003;50435;43.700;-79.318;2023-12-20T16:02:38;13;10;
64138;PMS5003;50435;43.700;-79.318;2023-12-20T16:05:06;13;11;
64138;PMS5003;50435;43.700;-79.318;2023-12-20T16:07:34;16;16;